sensor_id;sensor_type;location;lat;lon;timestamp;pressure;altitude;pressure_sealevel;temperature
11792;BMP180;5953;52.372;9.918;2023-01-08T00:00:22;99796.00;;;13.90
11792;BMP180;5953;52.372;9.918;2023-01-08T00:02:51;99789.00;;;13.90
11792;BMP180;5953;52.372;9.918;2023-01-08T00:05:19;99788.00;;;13.90
11792;BMP180;5953;52.372;9.918;2023-01-08T00:07:47;99797.00;;;13.60
11792;BMP180;5953;52.372;9.918;2023-01-08T00:10:15;99804.00;;;13.90
11792;BMP180;5953;52.372;9.918;2023-01-08T00:12:42;99799.00;;;13.80
11792;BMP180;5953;52.372;9.918;2023-01-08T00:15:10;99804.00;;;13.70
11792;BMP180;5953;52.372;9.918;2023-01-08T00:17:38;99800.00;;;13.60
11792;BMP180;5953;52.372;9.918;2023-01-08T00:20:08;99796.00;;;13.80
11792;BMP180;5953;52.372;9.918;2023-01-08T00:22:35;99791.00;;;13.80
11792;BMP180;5953;52.372;9.918;2023-01-08T00:25:04;99798.00;;;13.90
11792;BMP180;5953;52.372;9.918;2023-01-08T00:27:32;99791.00;;;13.80
11792;BMP180;5953;52.372;9.918;2023-01-08T00:29:59;99790.00;;;13.90
11792;BMP180;5953;52.372;9.918;2023-01-08T00:32:27;99776.00;;;13.60
11792;BMP180;5953;52.372;9.918;2023-01-08T00:34:55;99772.00;;;14.00
11792;BMP180;5953;52.372;9.918;2023-01-08T00:37:24;99768.00;;;14.10
11792;BMP180;5953;52.372;9.918;2023-01-08T00:39:52;99783.00;;;14.20
11792;BMP180;5953;52.372;9.918;2023-01-08T00:42:20;99777.00;;;14.30
11792;BMP180;5953;52.372;9.918;2023-01-08T00:44:47;99786.00;;;14.30
11792;BMP180;5953;52.372;9.918;2023-01-08T00:47:15;99785.00;;;14.10
11792;BMP180;5953;52.372;9.918;2023-01-08T00:49:43;99797.00;;;14.20
11792;BMP180;5953;52.372;9.918;2023-01-08T00:52:11;99792.00;;;14.20
11792;BMP180;5953;52.372;9.918;2023-01-08T00:54:40;99786.00;;;14.20
11792;BMP180;5953;52.372;9.918;2023-01-08T00:57:07;99788.00;;;14.30
11792;BMP180;5953;52.372;9.918;2023-01-08T00:59:35;99776.00;;;14.10
11792;BMP180;5953;52.372;9.918;2023-01-08T01:02:03;99777.00;;;14.30
11792;BMP180;5953;52.372;9.918;2023-01-08T01:04:31;99777.00;;;14.40
11792;BMP180;5953;52.372;9.918;2023-01-08T01:06:58;99780.00;;;14.40
11792;BMP180;5953;52.372;9.918;2023-01-08T01:09:26;99779.00;;;14.50
11792;BMP180;5953;52.372;9.918;2023-01-08T01:11:55;99781.00;;;14.40
11792;BMP180;5953;52.372;9.918;2023-01-08T01:14:23;99783.00;;;14.50
11792;BMP180;5953;52.372;9.918;2023-01-08T01:16:51;99763.00;;;14.50
11792;BMP180;5953;52.372;9.918;2023-01-08T01:19:19;99758.00;;;14.50
11792;BMP180;5953;52.372;9.918;2023-01-08T01:21:46;99766.00;;;14.60
11792;BMP180;5953;52.372;9.918;2023-01-08T01:24:14;99754.00;;;14.70
11792;BMP180;5953;52.372;9.918;2023-01-08T01:26:42;99754.00;;;14.70
11792;BMP180;5953;52.372;9.918;2023-01-08T01:29:10;99752.00;;;14.70
11792;BMP180;5953;52.372;9.918;2023-01-08T01:31:38;99764.00;;;14.80
11792;BMP180;5953;52.372;9.918;2023-01-08T01:34:06;99766.00;;;14.80
11792;BMP180;5953;52.372;9.918;2023-01-08T01:36:34;99750.00;;;14.70
11792;BMP180;5953;52.372;9.918;2023-01-08T01:39:03;99756.00;;;14.80
11792;BMP180;5953;52.372;9.918;2023-01-08T01:41:32;99752.00;;;14.80
11792;BMP180;5953;52.372;9.918;2023-01-08T01:44:34;99748.00;;;14.80
11792;BMP180;5953;52.372;9.918;2023-01-08T01:47:05;99750.00;;;14.40
11792;BMP180;5953;52.372;9.918;2023-01-08T01:49:34;99759.00;;;14.60
11792;BMP180;5953;52.372;9.918;2023-01-08T01:52:04;99749.00;;;14.70
11792;BMP180;5953;52.372;9.918;2023-01-08T01:54:35;99754.00;;;14.50
11792;BMP180;5953;52.372;9.918;2023-01-08T01:57:03;99761.00;;;14.60
11792;BMP180;5953;52.372;9.918;2023-01-08T01:59:31;99768.00;;;14.40
11792;BMP180;5953;52.372;9.918;2023-01-08T02:02:00;99768.00;;;14.60
11792;BMP180;5953;52.372;9.918;2023-01-08T02:04:28;99763.00;;;14.60
11792;BMP180;5953;52.372;9.918;2023-01-08T02:06:59;99759.00;;;14.50
11792;BMP180;5953;52.372;9.918;2023-01-08T02:09:40;99747.00;;;14.50
11792;BMP180;5953;52.372;9.918;2023-01-08T02:12:11;99742.00;;;14.40
11792;BMP180;5953;52.372;9.918;2023-01-08T02:14:52;99736.00;;;14.40
11792;BMP180;5953;52.372;9.918;2023-01-08T02:17:27;99725.00;;;14.70
11792;BMP180;5953;52.372;9.918;2023-01-08T02:20:05;99716.00;;;14.70
11792;BMP180;5953;52.372;9.918;2023-01-08T02:22:45;99732.00;;;14.70
11792;BMP180;5953;52.372;9.918;2023-01-08T02:25:21;99728.00;;;14.50
11792;BMP180;5953;52.372;9.918;2023-01-08T02:27:56;99713.00;;;14.50
11792;BMP180;5953;52.372;9.918;2023-01-08T02:30:26;99725.00;;;14.40
11792;BMP180;5953;52.372;9.918;2023-01-08T02:32:54;99731.00;;;14.20
11792;BMP180;5953;52.372;9.918;2023-01-08T02:35:22;99732.00;;;14.20
11792;BMP180;5953;52.372;9.918;2023-01-08T02:37:52;99726.00;;;13.80
11792;BMP180;5953;52.372;9.918;2023-01-08T02:40:24;99718.00;;;13.90
11792;BMP180;5953;52.372;9.918;2023-01-08T02:42:58;99708.00;;;13.90
11792;BMP180;5953;52.372;9.918;2023-01-08T02:45:34;99716.00;;;14.00
11792;BMP180;5953;52.372;9.918;2023-01-08T02:48:08;99713.00;;;13.90
11792;BMP180;5953;52.372;9.918;2023-01-08T02:50:39;99713.00;;;14.10
11792;BMP180;5953;52.372;9.918;2023-01-08T02:53:12;99726.00;;;13.80
11792;BMP180;5953;52.372;9.918;2023-01-08T02:55:44;99726.00;;;13.80
11792;BMP180;5953;52.372;9.918;2023-01-08T02:58:15;99715.00;;;13.80
11792;BMP180;5953;52.372;9.918;2023-01-08T03:00:44;99712.00;;;13.90
11792;BMP180;5953;52.372;9.918;2023-01-08T03:03:16;99717.00;;;13.90
11792;BMP180;5953;52.372;9.918;2023-01-08T03:05:47;99712.00;;;13.50
11792;BMP180;5953;52.372;9.918;2023-01-08T03:08:17;99722.00;;;13.30
11792;BMP180;5953;52.372;9.918;2023-01-08T03:10:48;99725.00;;;13.20
11792;BMP180;5953;52.372;9.918;2023-01-08T03:13:23;99728.00;;;13.70
11792;BMP180;5953;52.372;9.918;2023-01-08T03:15:56;99727.00;;;13.80
11792;BMP180;5953;52.372;9.918;2023-01-08T03:18:30;99733.00;;;13.90
11792;BMP180;5953;52.372;9.918;2023-01-08T03:21:00;99721.00;;;13.40
11792;BMP180;5953;52.372;9.918;2023-01-08T03:23:30;99722.00;;;13.90
11792;BMP180;5953;52.372;9.918;2023-01-08T03:26:00;99730.00;;;14.10
11792;BMP180;5953;52.372;9.918;2023-01-08T03:28:35;99737.00;;;14.20
11792;BMP180;5953;52.372;9.918;2023-01-08T03:31:05;99731.00;;;14.00
11792;BMP180;5953;52.372;9.918;2023-01-08T03:33:35;99723.00;;;13.90
11792;BMP180;5953;52.372;9.918;2023-01-08T03:36:05;99716.00;;;14.00
11792;BMP180;5953;52.372;9.918;2023-01-08T03:38:36;99702.00;;;14.20
11792;BMP180;5953;52.372;9.918;2023-01-08T03:41:09;99697.00;;;14.50
11792;BMP180;5953;52.372;9.918;2023-01-08T03:43:39;99699.00;;;14.40
11792;BMP180;5953;52.372;9.918;2023-01-08T03:46:11;99691.00;;;14.50
11792;BMP180;5953;52.372;9.918;2023-01-08T03:48:41;99690.00;;;14.40
11792;BMP180;5953;52.372;9.918;2023-01-08T03:51:10;99690.00;;;14.50
11792;BMP180;5953;52.372;9.918;2023-01-08T03:53:38;99698.00;;;14.60
11792;BMP180;5953;52.372;9.918;2023-01-08T03:56:06;99695.00;;;14.70
11792;BMP180;5953;52.372;9.918;2023-01-08T03:58:34;99698.00;;;14.70
11792;BMP180;5953;52.372;9.918;2023-01-08T04:01:03;99688.00;;;14.50
11792;BMP180;5953;52.372;9.918;2023-01-08T04:03:30;99687.00;;;14.80
11792;BMP180;5953;52.372;9.918;2023-01-08T04:05:58;99684.00;;;14.80
11792;BMP180;5953;52.372;9.918;2023-01-08T04:08:26;99673.00;;;14.80
11792;BMP180;5953;52.372;9.918;2023-01-08T04:10:53;99686.00;;;14.80
11792;BMP180;5953;52.372;9.918;2023-01-08T04:13:21;99670.00;;;14.70
11792;BMP180;5953;52.372;9.918;2023-01-08T04:15:49;99670.00;;;14.70
11792;BMP180;5953;52.372;9.918;2023-01-08T04:18:19;99681.00;;;14.60
11792;BMP180;5953;52.372;9.918;2023-01-08T04:20:47;99674.00;;;14.40
11792;BMP180;5953;52.372;9.918;2023-01-08T04:23:14;99670.00;;;14.50
11792;BMP180;5953;52.372;9.918;2023-01-08T04:25:42;99674.00;;;14.50
11792;BMP180;5953;52.372;9.918;2023-01-08T04:28:10;99669.00;;;14.60
11792;BMP180;5953;52.372;9.918;2023-01-08T04:30:38;99659.00;;;14.50
11792;BMP180;5953;52.372;9.918;2023-01-08T04:33:05;99662.00;;;14.50
11792;BMP180;5953;52.372;9.918;2023-01-08T04:35:35;99657.00;;;14.40
11792;BMP180;5953;52.372;9.918;2023-01-08T04:38:02;99651.00;;;14.60
11792;BMP180;5953;52.372;9.918;2023-01-08T04:40:31;99657.00;;;14.60
11792;BMP180;5953;52.372;9.918;2023-01-08T04:42:59;99650.00;;;14.70
11792;BMP180;5953;52.372;9.918;2023-01-08T04:45:26;99656.00;;;14.70
11792;BMP180;5953;52.372;9.918;2023-01-08T04:47:55;99651.00;;;14.90
11792;BMP180;5953;52.372;9.918;2023-01-08T04:50:22;99653.00;;;14.60
11792;BMP180;5953;52.372;9.918;2023-01-08T04:52:52;99639.00;;;14.70
11792;BMP180;5953;52.372;9.918;2023-01-08T04:55:19;99640.00;;;14.50
11792;BMP180;5953;52.372;9.918;2023-01-08T04:57:47;99634.00;;;14.50
11792;BMP180;5953;52.372;9.918;2023-01-08T05:00:15;99635.00;;;14.60
11792;BMP180;5953;52.372;9.918;2023-01-08T05:02:43;99633.00;;;14.60
11792;BMP180;5953;52.372;9.918;2023-01-08T05:05:11;99633.00;;;14.60
11792;BMP180;5953;52.372;9.918;2023-01-08T05:07:39;99633.00;;;14.50
11792;BMP180;5953;52.372;9.918;2023-01-08T05:10:09;99630.00;;;14.50
11792;BMP180;5953;52.372;9.918;2023-01-08T05:12:36;99633.00;;;14.50
11792;BMP180;5953;52.372;9.918;2023-01-08T05:15:05;99635.00;;;14.60
11792;BMP180;5953;52.372;9.918;2023-01-08T05:17:33;99627.00;;;14.60
11792;BMP180;5953;52.372;9.918;2023-01-08T05:20:00;99622.00;;;14.60
11792;BMP180;5953;52.372;9.918;2023-01-08T05:22:28;99638.00;;;14.50
11792;BMP180;5953;52.372;9.918;2023-01-08T05:24:56;99632.00;;;14.40
11792;BMP180;5953;52.372;9.918;2023-01-08T05:27:27;99619.00;;;14.40
11792;BMP180;5953;52.372;9.918;2023-01-08T05:29:55;99634.00;;;14.40
11792;BMP180;5953;52.372;9.918;2023-01-08T05:32:22;99631.00;;;14.10
11792;BMP180;5953;52.372;9.918;2023-01-08T05:34:50;99627.00;;;14.10
11792;BMP180;5953;52.372;9.918;2023-01-08T05:37:18;99630.00;;;14.10
11792;BMP180;5953;52.372;9.918;2023-01-08T05:39:45;99633.00;;;14.10
11792;BMP180;5953;52.372;9.918;2023-01-08T05:42:13;99632.00;;;14.20
11792;BMP180;5953;52.372;9.918;2023-01-08T05:44:42;99631.00;;;14.10
11792;BMP180;5953;52.372;9.918;2023-01-08T05:47:10;99637.00;;;14.00
11792;BMP180;5953;52.372;9.918;2023-01-08T05:49:37;99626.00;;;14.10
11792;BMP180;5953;52.372;9.918;2023-01-08T05:52:05;99622.00;;;14.00
11792;BMP180;5953;52.372;9.918;2023-01-08T05:54:33;99634.00;;;13.90
11792;BMP180;5953;52.372;9.918;2023-01-08T05:57:01;99621.00;;;14.00
11792;BMP180;5953;52.372;9.918;2023-01-08T05:59:28;99621.00;;;13.90
11792;BMP180;5953;52.372;9.918;2023-01-08T06:01:57;99619.00;;;13.90
11792;BMP180;5953;52.372;9.918;2023-01-08T06:04:25;99625.00;;;13.90
11792;BMP180;5953;52.372;9.918;2023-01-08T06:06:53;99630.00;;;13.90
11792;BMP180;5953;52.372;9.918;2023-01-08T06:09:21;99622.00;;;13.80
11792;BMP180;5953;52.372;9.918;2023-01-08T06:11:48;99606.00;;;13.70
11792;BMP180;5953;52.372;9.918;2023-01-08T06:14:16;99610.00;;;13.50
11792;BMP180;5953;52.372;9.918;2023-01-08T06:16:44;99609.00;;;13.50
11792;BMP180;5953;52.372;9.918;2023-01-08T06:19:13;99605.00;;;13.60
11792;BMP180;5953;52.372;9.918;2023-01-08T06:21:40;99603.00;;;13.50
11792;BMP180;5953;52.372;9.918;2023-01-08T06:24:08;99608.00;;;13.70
11792;BMP180;5953;52.372;9.918;2023-01-08T06:26:36;99616.00;;;13.70
11792;BMP180;5953;52.372;9.918;2023-01-08T06:29:04;99607.00;;;13.70
11792;BMP180;5953;52.372;9.918;2023-01-08T06:31:31;99597.00;;;13.70
11792;BMP180;5953;52.372;9.918;2023-01-08T06:34:00;99601.00;;;13.70
11792;BMP180;5953;52.372;9.918;2023-01-08T06:36:29;99601.00;;;13.80
11792;BMP180;5953;52.372;9.918;2023-01-08T06:38:57;99605.00;;;13.80
11792;BMP180;5953;52.372;9.918;2023-01-08T06:41:24;99595.00;;;13.60
11792;BMP180;5953;52.372;9.918;2023-01-08T06:43:52;99586.00;;;13.50
11792;BMP180;5953;52.372;9.918;2023-01-08T06:46:20;99591.00;;;13.60
11792;BMP180;5953;52.372;9.918;2023-01-08T06:48:47;99595.00;;;13.50
11792;BMP180;5953;52.372;9.918;2023-01-08T06:51:15;99606.00;;;13.40
11792;BMP180;5953;52.372;9.918;2023-01-08T06:53:46;99593.00;;;13.60
11792;BMP180;5953;52.372;9.918;2023-01-08T06:56:14;99595.00;;;13.60
11792;BMP180;5953;52.372;9.918;2023-01-08T06:58:42;99598.00;;;13.70
11792;BMP180;5953;52.372;9.918;2023-01-08T07:01:12;99590.00;;;13.50
11792;BMP180;5953;52.372;9.918;2023-01-08T07:03:40;99611.00;;;13.50
11792;BMP180;5953;52.372;9.918;2023-01-08T07:06:12;99598.00;;;13.60
11792;BMP180;5953;52.372;9.918;2023-01-08T07:08:40;99613.00;;;13.50
11792;BMP180;5953;52.372;9.918;2023-01-08T07:11:10;99601.00;;;13.30
11792;BMP180;5953;52.372;9.918;2023-01-08T07:13:37;99605.00;;;13.40
11792;BMP180;5953;52.372;9.918;2023-01-08T07:16:05;99600.00;;;13.10
11792;BMP180;5953;52.372;9.918;2023-01-08T07:18:34;99598.00;;;13.10
11792;BMP180;5953;52.372;9.918;2023-01-08T07:21:02;99609.00;;;13.30
11792;BMP180;5953;52.372;9.918;2023-01-08T07:23:30;99596.00;;;13.30
11792;BMP180;5953;52.372;9.918;2023-01-08T07:25:58;99596.00;;;13.20
11792;BMP180;5953;52.372;9.918;2023-01-08T07:28:28;99603.00;;;13.20
11792;BMP180;5953;52.372;9.918;2023-01-08T07:30:56;99617.00;;;13.30
11792;BMP180;5953;52.372;9.918;2023-01-08T07:33:24;99612.00;;;13.30
11792;BMP180;5953;52.372;9.918;2023-01-08T07:35:52;99617.00;;;13.20
11792;BMP180;5953;52.372;9.918;2023-01-08T07:38:20;99617.00;;;13.10
11792;BMP180;5953;52.372;9.918;2023-01-08T07:40:48;99608.00;;;13.20
11792;BMP180;5953;52.372;9.918;2023-01-08T07:43:16;99620.00;;;13.20
11792;BMP180;5953;52.372;9.918;2023-01-08T07:45:45;99616.00;;;13.00
11792;BMP180;5953;52.372;9.918;2023-01-08T07:48:12;99619.00;;;13.20
11792;BMP180;5953;52.372;9.918;2023-01-08T07:50:42;99621.00;;;13.10
11792;BMP180;5953;52.372;9.918;2023-01-08T07:53:11;99623.00;;;13.00
11792;BMP180;5953;52.372;9.918;2023-01-08T07:55:39;99623.00;;;13.00
11792;BMP180;5953;52.372;9.918;2023-01-08T07:58:08;99621.00;;;13.10
11792;BMP180;5953;52.372;9.918;2023-01-08T08:00:36;99628.00;;;13.00
11792;BMP180;5953;52.372;9.918;2023-01-08T08:03:07;99616.00;;;12.90
11792;BMP180;5953;52.372;9.918;2023-01-08T08:05:37;99618.00;;;13.00
11792;BMP180;5953;52.372;9.918;2023-01-08T08:08:08;99622.00;;;12.90
11792;BMP180;5953;52.372;9.918;2023-01-08T08:10:36;99615.00;;;13.00
11792;BMP180;5953;52.372;9.918;2023-01-08T08:13:04;99623.00;;;13.00
11792;BMP180;5953;52.372;9.918;2023-01-08T08:15:33;99618.00;;;13.00
11792;BMP180;5953;52.372;9.918;2023-01-08T08:18:00;99621.00;;;12.80
11792;BMP180;5953;52.372;9.918;2023-01-08T08:20:30;99618.00;;;13.00
11792;BMP180;5953;52.372;9.918;2023-01-08T08:22:59;99603.00;;;13.10
11792;BMP180;5953;52.372;9.918;2023-01-08T08:25:28;99607.00;;;12.90
11792;BMP180;5953;52.372;9.918;2023-01-08T08:27:56;99599.00;;;13.00
11792;BMP180;5953;52.372;9.918;2023-01-08T08:30:25;99606.00;;;13.00
11792;BMP180;5953;52.372;9.918;2023-01-08T08:32:54;99595.00;;;13.10
11792;BMP180;5953;52.372;9.918;2023-01-08T08:35:21;99589.00;;;13.10
11792;BMP180;5953;52.372;9.918;2023-01-08T08:37:50;99592.00;;;13.20
11792;BMP180;5953;52.372;9.918;2023-01-08T08:40:18;99591.00;;;13.10
11792;BMP180;5953;52.372;9.918;2023-01-08T08:42:46;99592.00;;;13.20
11792;BMP180;5953;52.372;9.918;2023-01-08T08:45:14;99603.00;;;13.10
11792;BMP180;5953;52.372;9.918;2023-01-08T08:47:41;99590.00;;;13.20
11792;BMP180;5953;52.372;9.918;2023-01-08T08:50:09;99581.00;;;13.10
11792;BMP180;5953;52.372;9.918;2023-01-08T08:52:37;99581.00;;;13.30
11792;BMP180;5953;52.372;9.918;2023-01-08T08:55:07;99580.00;;;13.40
11792;BMP180;5953;52.372;9.918;2023-01-08T08:57:38;99575.00;;;13.40
11792;BMP180;5953;52.372;9.918;2023-01-08T09:00:07;99570.00;;;13.30
11792;BMP180;5953;52.372;9.918;2023-01-08T09:02:34;99571.00;;;13.10
11792;BMP180;5953;52.372;9.918;2023-01-08T09:05:03;99566.00;;;13.20
11792;BMP180;5953;52.372;9.918;2023-01-08T09:07:31;99570.00;;;13.30
11792;BMP180;5953;52.372;9.918;2023-01-08T09:09:59;99560.00;;;13.20
11792;BMP180;5953;52.372;9.918;2023-01-08T09:12:28;99557.00;;;13.30
11792;BMP180;5953;52.372;9.918;2023-01-08T09:14:56;99566.00;;;13.30
11792;BMP180;5953;52.372;9.918;2023-01-08T09:17:23;99574.00;;;13.40
11792;BMP180;5953;52.372;9.918;2023-01-08T09:19:51;99576.00;;;13.50
11792;BMP180;5953;52.372;9.918;2023-01-08T09:22:19;99568.00;;;13.50
11792;BMP180;5953;52.372;9.918;2023-01-08T09:24:47;99563.00;;;13.60
11792;BMP180;5953;52.372;9.918;2023-01-08T09:27:15;99564.00;;;13.70
11792;BMP180;5953;52.372;9.918;2023-01-08T09:29:44;99556.00;;;13.70
11792;BMP180;5953;52.372;9.918;2023-01-08T09:32:11;99557.00;;;13.60
11792;BMP180;5953;52.372;9.918;2023-01-08T09:34:39;99560.00;;;13.40
11792;BMP180;5953;52.372;9.918;2023-01-08T09:37:07;99568.00;;;13.60
11792;BMP180;5953;52.372;9.918;2023-01-08T09:39:35;99577.00;;;13.60
11792;BMP180;5953;52.372;9.918;2023-01-08T09:42:04;99557.00;;;13.70
11792;BMP180;5953;52.372;9.918;2023-01-08T09:44:35;99562.00;;;13.70
11792;BMP180;5953;52.372;9.918;2023-01-08T09:47:06;99563.00;;;13.90
11792;BMP180;5953;52.372;9.918;2023-01-08T09:49:42;99568.00;;;14.00
11792;BMP180;5953;52.372;9.918;2023-01-08T09:52:14;99575.00;;;14.20
11792;BMP180;5953;52.372;9.918;2023-01-08T09:54:42;99566.00;;;14.10
11792;BMP180;5953;52.372;9.918;2023-01-08T09:57:12;99572.00;;;14.20
11792;BMP180;5953;52.372;9.918;2023-01-08T09:59:42;99566.00;;;14.30
11792;BMP180;5953;52.372;9.918;2023-01-08T10:02:15;99561.00;;;14.30
11792;BMP180;5953;52.372;9.918;2023-01-08T10:04:44;99569.00;;;14.50
11792;BMP180;5953;52.372;9.918;2023-01-08T10:07:16;99566.00;;;14.70
11792;BMP180;5953;52.372;9.918;2023-01-08T10:09:47;99563.00;;;14.60
11792;BMP180;5953;52.372;9.918;2023-01-08T10:12:21;99564.00;;;14.60
11792;BMP180;5953;52.372;9.918;2023-01-08T10:14:50;99568.00;;;14.50
11792;BMP180;5953;52.372;9.918;2023-01-08T10:17:27;99552.00;;;14.70
11792;BMP180;5953;52.372;9.918;2023-01-08T10:19:57;99553.00;;;14.50
11792;BMP180;5953;52.372;9.918;2023-01-08T10:22:30;99542.00;;;14.50
11792;BMP180;5953;52.372;9.918;2023-01-08T10:25:05;99547.00;;;14.40
11792;BMP180;5953;52.372;9.918;2023-01-08T10:27:38;99540.00;;;14.50
11792;BMP180;5953;52.372;9.918;2023-01-08T10:30:15;99536.00;;;14.60
11792;BMP180;5953;52.372;9.918;2023-01-08T10:32:51;99527.00;;;14.50
11792;BMP180;5953;52.372;9.918;2023-01-08T10:35:21;99530.00;;;14.40
11792;BMP180;5953;52.372;9.918;2023-01-08T10:37:51;99523.00;;;14.50
11792;BMP180;5953;52.372;9.918;2023-01-08T10:40:25;99536.00;;;14.50
11792;BMP180;5953;52.372;9.918;2023-01-08T10:42:55;99532.00;;;14.50
11792;BMP180;5953;52.372;9.918;2023-01-08T10:45:26;99528.00;;;14.50
11792;BMP180;5953;52.372;9.918;2023-01-08T10:47:58;99521.00;;;14.50
11792;BMP180;5953;52.372;9.918;2023-01-08T10:50:28;99518.00;;;14.30
11792;BMP180;5953;52.372;9.918;2023-01-08T10:52:58;99514.00;;;14.50
11792;BMP180;5953;52.372;9.918;2023-01-08T10:55:28;99516.00;;;14.40
11792;BMP180;5953;52.372;9.918;2023-01-08T10:57:58;99516.00;;;14.40
11792;BMP180;5953;52.372;9.918;2023-01-08T11:00:28;99508.00;;;14.40
11792;BMP180;5953;52.372;9.918;2023-01-08T11:03:00;99500.00;;;14.40
11792;BMP180;5953;52.372;9.918;2023-01-08T11:05:30;99506.00;;;14.50
11792;BMP180;5953;52.372;9.918;2023-01-08T11:08:00;99505.00;;;14.40
11792;BMP180;5953;52.372;9.918;2023-01-08T11:10:29;99504.00;;;14.50
11792;BMP180;5953;52.372;9.918;2023-01-08T11:12:58;99517.00;;;14.70
11792;BMP180;5953;52.372;9.918;2023-01-08T11:15:29;99511.00;;;14.20
11792;BMP180;5953;52.372;9.918;2023-01-08T11:18:15;99509.00;;;14.60
11792;BMP180;5953;52.372;9.918;2023-01-08T11:20:44;99507.00;;;14.70
11792;BMP180;5953;52.372;9.918;2023-01-08T11:23:16;99491.00;;;14.80
11792;BMP180;5953;52.372;9.918;2023-01-08T11:25:50;99492.00;;;14.70
11792;BMP180;5953;52.372;9.918;2023-01-08T11:28:25;99490.00;;;14.60
11792;BMP180;5953;52.372;9.918;2023-01-08T11:31:01;99486.00;;;14.70
11792;BMP180;5953;52.372;9.918;2023-01-08T11:33:33;99492.00;;;14.90
11792;BMP180;5953;52.372;9.918;2023-01-08T11:36:06;99494.00;;;14.40
11792;BMP180;5953;52.372;9.918;2023-01-08T11:38:37;99490.00;;;14.70
11792;BMP180;5953;52.372;9.918;2023-01-08T11:41:14;99483.00;;;15.10
11792;BMP180;5953;52.372;9.918;2023-01-08T11:44:00;99489.00;;;15.00
11792;BMP180;5953;52.372;9.918;2023-01-08T11:46:36;99487.00;;;15.10
11792;BMP180;5953;52.372;9.918;2023-01-08T11:49:21;99474.00;;;15.20
11792;BMP180;5953;52.372;9.918;2023-01-08T11:52:03;99478.00;;;15.20
11792;BMP180;5953;52.372;9.918;2023-01-08T11:54:45;99471.00;;;14.90
11792;BMP180;5953;52.372;9.918;2023-01-08T11:57:29;99455.00;;;15.20
11792;BMP180;5953;52.372;9.918;2023-01-08T12:00:12;99468.00;;;15.40
11792;BMP180;5953;52.372;9.918;2023-01-08T12:02:50;99464.00;;;15.30
11792;BMP180;5953;52.372;9.918;2023-01-08T12:05:28;99459.00;;;15.30
11792;BMP180;5953;52.372;9.918;2023-01-08T12:08:01;99457.00;;;15.50
11792;BMP180;5953;52.372;9.918;2023-01-08T12:10:38;99441.00;;;15.40
11792;BMP180;5953;52.372;9.918;2023-01-08T12:13:21;99444.00;;;15.60
11792;BMP180;5953;52.372;9.918;2023-01-08T12:16:00;99438.00;;;15.60
11792;BMP180;5953;52.372;9.918;2023-01-08T12:18:50;99446.00;;;16.00
11792;BMP180;5953;52.372;9.918;2023-01-08T12:21:28;99436.00;;;16.00
11792;BMP180;5953;52.372;9.918;2023-01-08T12:24:14;99435.00;;;16.00
11792;BMP180;5953;52.372;9.918;2023-01-08T12:26:52;99428.00;;;15.90
11792;BMP180;5953;52.372;9.918;2023-01-08T12:29:35;99425.00;;;15.80
11792;BMP180;5953;52.372;9.918;2023-01-08T12:32:26;99417.00;;;15.60
11792;BMP180;5953;52.372;9.918;2023-01-08T12:34:59;99413.00;;;15.90
11792;BMP180;5953;52.372;9.918;2023-01-08T12:37:33;99423.00;;;15.60
11792;BMP180;5953;52.372;9.918;2023-01-08T12:40:05;99419.00;;;15.90
11792;BMP180;5953;52.372;9.918;2023-01-08T12:42:41;99420.00;;;15.60
11792;BMP180;5953;52.372;9.918;2023-01-08T12:45:23;99404.00;;;15.80
11792;BMP180;5953;52.372;9.918;2023-01-08T12:47:55;99409.00;;;15.40
11792;BMP180;5953;52.372;9.918;2023-01-08T12:50:33;99397.00;;;15.50
11792;BMP180;5953;52.372;9.918;2023-01-08T12:53:08;99399.00;;;15.70
11792;BMP180;5953;52.372;9.918;2023-01-08T12:55:43;99396.00;;;15.60
11792;BMP180;5953;52.372;9.918;2023-01-08T12:58:25;99400.00;;;15.50
11792;BMP180;5953;52.372;9.918;2023-01-08T13:00:59;99393.00;;;15.40
11792;BMP180;5953;52.372;9.918;2023-01-08T13:03:29;99393.00;;;15.60
11792;BMP180;5953;52.372;9.918;2023-01-08T13:06:07;99384.00;;;15.30
11792;BMP180;5953;52.372;9.918;2023-01-08T13:08:39;99384.00;;;15.30
11792;BMP180;5953;52.372;9.918;2023-01-08T13:11:07;99375.00;;;15.40
11792;BMP180;5953;52.372;9.918;2023-01-08T13:13:37;99358.00;;;15.20
11792;BMP180;5953;52.372;9.918;2023-01-08T13:16:28;99370.00;;;15.50
11792;BMP180;5953;52.372;9.918;2023-01-08T13:18:59;99372.00;;;15.40
11792;BMP180;5953;52.372;9.918;2023-01-08T13:21:33;99363.00;;;15.50
11792;BMP180;5953;52.372;9.918;2023-01-08T13:24:06;99353.00;;;15.20
11792;BMP180;5953;52.372;9.918;2023-01-08T13:26:35;99348.00;;;15.10
11792;BMP180;5953;52.372;9.918;2023-01-08T13:29:21;99349.00;;;15.30
11792;BMP180;5953;52.372;9.918;2023-01-08T13:31:50;99349.00;;;15.20
11792;BMP180;5953;52.372;9.918;2023-01-08T13:34:21;99336.00;;;15.50
11792;BMP180;5953;52.372;9.918;2023-01-08T13:36:56;99344.00;;;15.10
11792;BMP180;5953;52.372;9.918;2023-01-08T13:39:33;99339.00;;;15.30
11792;BMP180;5953;52.372;9.918;2023-01-08T13:42:20;99341.00;;;15.50
11792;BMP180;5953;52.372;9.918;2023-01-08T13:44:50;99341.00;;;15.60
11792;BMP180;5953;52.372;9.918;2023-01-08T13:47:22;99338.00;;;15.40
11792;BMP180;5953;52.372;9.918;2023-01-08T13:49:54;99332.00;;;15.40
11792;BMP180;5953;52.372;9.918;2023-01-08T13:52:43;99328.00;;;15.20
11792;BMP180;5953;52.372;9.918;2023-01-08T13:55:15;99330.00;;;15.30
11792;BMP180;5953;52.372;9.918;2023-01-08T13:57:47;99318.00;;;14.90
11792;BMP180;5953;52.372;9.918;2023-01-08T14:00:18;99322.00;;;15.10
11792;BMP180;5953;52.372;9.918;2023-01-08T14:02:48;99322.00;;;15.30
11792;BMP180;5953;52.372;9.918;2023-01-08T14:05:24;99330.00;;;15.20
11792;BMP180;5953;52.372;9.918;2023-01-08T14:07:52;99324.00;;;15.40
11792;BMP180;5953;52.372;9.918;2023-01-08T14:10:22;99331.00;;;15.60
11792;BMP180;5953;52.372;9.918;2023-01-08T14:12:50;99333.00;;;15.60
11792;BMP180;5953;52.372;9.918;2023-01-08T14:15:23;99325.00;;;15.60
11792;BMP180;5953;52.372;9.918;2023-01-08T14:17:52;99332.00;;;15.80
11792;BMP180;5953;52.372;9.918;2023-01-08T14:20:30;99324.00;;;15.90
11792;BMP180;5953;52.372;9.918;2023-01-08T14:22:59;99335.00;;;16.00
11792;BMP180;5953;52.372;9.918;2023-01-08T14:25:29;99333.00;;;15.80
11792;BMP180;5953;52.372;9.918;2023-01-08T14:27:59;99319.00;;;15.80
11792;BMP180;5953;52.372;9.918;2023-01-08T14:30:28;99333.00;;;15.10
11792;BMP180;5953;52.372;9.918;2023-01-08T14:32:56;99337.00;;;15.40
11792;BMP180;5953;52.372;9.918;2023-01-08T14:35:31;99328.00;;;15.30
11792;BMP180;5953;52.372;9.918;2023-01-08T14:38:00;99327.00;;;15.50
11792;BMP180;5953;52.372;9.918;2023-01-08T14:40:32;99328.00;;;15.40